Cashion, Oklahoma
Current Conditions -  °F | °C
As of 5:53 AM on Saturday 20 Dec 2014 (Local Time) from KGOK Reporting Station
Haze Haze  
Wind Chill: 33°   Ceiling: 2700
Heat Index: 38°   Visibility: 6mi
Dew Point: 35°   Wind: 6mph
Humidity: 89%   Direction: 160°SSE
Pressure: 30.21"   Gusts: NA
Location:  35.8°N, 97.68°W
Report Text: KGOK 201153Z AUTO 16005KT 6SM BR OVC027 03/02 A3021 RMK AO2 SLP237 T00330017 10039 20011 53003
Loading
Personal Weather Stations






























Interactive Weather Map New forecast layout! Learn more

10-Day Weather Forecast

Advertisements
Track Severe Weather on mobile